Terminal Aerodrome Forecast
Issued by NWS Shreveport, LA

Home | Current Version | Previous Version | Text Only | Print | Product List | Glossary On
Versions: 1 2 3 4 5 6 7 8 9 10 11 12 13 14 15 16 17 18 19 20
000
FTUS44 KSHV 271740
TAFLFK
TAF
KLFK 271740Z 2718/2818 VRB04KT P6SM SKC
     FM280800 16009KT P6SM BKN020
     FM281400 16012KT 4SM BR OVC007
     FM281500 18012G19KT P6SM OVC007
     FM281600 18015G22KT P6SM OVC015=

USA.gov is the U.S. government's official web portal to all federal, state and local government web resources and services.